sensor_id;sensor_type;location;lat;lon;timestamp;temperature;humidity
20560;DHT22;10438;51.454;6.718;2022-08-02T00:00:41;16.60;99.90
20560;DHT22;10438;51.454;6.718;2022-08-02T00:03:06;16.50;99.90
20560;DHT22;10438;51.454;6.718;2022-08-02T00:05:32;16.50;99.90
20560;DHT22;10438;51.454;6.718;2022-08-02T00:07:57;16.50;99.90
20560;DHT22;10438;51.454;6.718;2022-08-02T00:10:23;16.50;99.90
20560;DHT22;10438;51.454;6.718;2022-08-02T00:12:48;16.50;99.90
20560;DHT22;10438;51.454;6.718;2022-08-02T00:15:14;16.50;99.90
20560;DHT22;10438;51.454;6.718;2022-08-02T00:17:39;16.50;99.90
20560;DHT22;10438;51.454;6.718;2022-08-02T00:20:05;16.50;99.90
20560;DHT22;10438;51.454;6.718;2022-08-02T00:22:31;16.50;99.90
20560;DHT22;10438;51.454;6.718;2022-08-02T00:24:57;16.40;99.90
20560;DHT22;10438;51.454;6.718;2022-08-02T00:27:23;16.40;99.90
20560;DHT22;10438;51.454;6.718;2022-08-02T00:29:49;16.40;99.90
20560;DHT22;10438;51.454;6.718;2022-08-02T00:32:16;16.40;99.90
20560;DHT22;10438;51.454;6.718;2022-08-02T00:34:41;16.40;99.90
20560;DHT22;10438;51.454;6.718;2022-08-02T00:37:07;16.40;99.90
20560;DHT22;10438;51.454;6.718;2022-08-02T00:39:33;16.40;99.90
20560;DHT22;10438;51.454;6.718;2022-08-02T00:41:58;16.40;99.90
20560;DHT22;10438;51.454;6.718;2022-08-02T00:44:24;16.40;99.90
20560;DHT22;10438;51.454;6.718;2022-08-02T00:46:49;16.40;99.90
20560;DHT22;10438;51.454;6.718;2022-08-02T00:49:15;16.40;99.90
20560;DHT22;10438;51.454;6.718;2022-08-02T00:51:41;16.30;99.90
20560;DHT22;10438;51.454;6.718;2022-08-02T00:54:07;16.30;99.90
20560;DHT22;10438;51.454;6.718;2022-08-02T00:56:34;16.30;99.90
20560;DHT22;10438;51.454;6.718;2022-08-02T00:59:00;16.30;99.90
20560;DHT22;10438;51.454;6.718;2022-08-02T01:01:25;16.30;99.90
20560;DHT22;10438;51.454;6.718;2022-08-02T01:04:07;16.30;99.90
20560;DHT22;10438;51.454;6.718;2022-08-02T01:06:33;16.30;99.90
20560;DHT22;10438;51.454;6.718;2022-08-02T01:09:00;16.20;99.90
20560;DHT22;10438;51.454;6.718;2022-08-02T01:11:30;16.20;99.90
20560;DHT22;10438;51.454;6.718;2022-08-02T01:13:59;16.20;99.90
20560;DHT22;10438;51.454;6.718;2022-08-02T01:16:30;16.20;99.90
20560;DHT22;10438;51.454;6.718;2022-08-02T01:19:00;16.20;99.90
20560;DHT22;10438;51.454;6.718;2022-08-02T01:21:37;16.10;99.90
20560;DHT22;10438;51.454;6.718;2022-08-02T01:29:58;16.10;99.90
20560;DHT22;10438;51.454;6.718;2022-08-02T01:32:28;16.10;99.90
20560;DHT22;10438;51.454;6.718;2022-08-02T01:35:08;16.00;99.90
20560;DHT22;10438;51.454;6.718;2022-08-02T01:37:46;16.10;99.90
20560;DHT22;10438;51.454;6.718;2022-08-02T01:40:16;16.00;99.90
20560;DHT22;10438;51.454;6.718;2022-08-02T01:42:48;16.00;99.90
20560;DHT22;10438;51.454;6.718;2022-08-02T01:45:17;16.00;99.90
20560;DHT22;10438;51.454;6.718;2022-08-02T01:47:44;16.00;99.90
20560;DHT22;10438;51.454;6.718;2022-08-02T01:50:13;16.00;99.90
20560;DHT22;10438;51.454;6.718;2022-08-02T01:52:48;15.90;99.90
20560;DHT22;10438;51.454;6.718;2022-08-02T01:55:20;16.00;99.90
20560;DHT22;10438;51.454;6.718;2022-08-02T01:57:49;16.00;99.90
20560;DHT22;10438;51.454;6.718;2022-08-02T02:00:16;16.00;99.90
20560;DHT22;10438;51.454;6.718;2022-08-02T02:02:43;15.90;99.90
20560;DHT22;10438;51.454;6.718;2022-08-02T02:05:18;15.90;99.90
20560;DHT22;10438;51.454;6.718;2022-08-02T02:07:47;15.80;99.90
20560;DHT22;10438;51.454;6.718;2022-08-02T02:10:16;15.80;99.90
20560;DHT22;10438;51.454;6.718;2022-08-02T02:12:46;15.80;99.90
20560;DHT22;10438;51.454;6.718;2022-08-02T02:15:14;15.80;99.90
20560;DHT22;10438;51.454;6.718;2022-08-02T02:17:45;15.70;99.90
20560;DHT22;10438;51.454;6.718;2022-08-02T02:20:14;15.70;99.90
20560;DHT22;10438;51.454;6.718;2022-08-02T02:22:40;15.70;99.90
20560;DHT22;10438;51.454;6.718;2022-08-02T02:25:08;15.60;99.90
20560;DHT22;10438;51.454;6.718;2022-08-02T02:27:35;15.60;99.90
20560;DHT22;10438;51.454;6.718;2022-08-02T02:30:03;15.60;99.90
20560;DHT22;10438;51.454;6.718;2022-08-02T02:32:29;15.60;99.90
20560;DHT22;10438;51.454;6.718;2022-08-02T02:34:55;15.50;99.90
20560;DHT22;10438;51.454;6.718;2022-08-02T02:37:25;15.50;99.90
20560;DHT22;10438;51.454;6.718;2022-08-02T02:39:53;15.50;99.90
20560;DHT22;10438;51.454;6.718;2022-08-02T02:42:23;15.40;99.90
20560;DHT22;10438;51.454;6.718;2022-08-02T02:44:50;15.40;99.90
20560;DHT22;10438;51.454;6.718;2022-08-02T02:47:18;15.40;99.90
20560;DHT22;10438;51.454;6.718;2022-08-02T02:49:45;15.40;99.90
20560;DHT22;10438;51.454;6.718;2022-08-02T02:52:14;15.40;99.90
20560;DHT22;10438;51.454;6.718;2022-08-02T02:54:41;15.40;99.90
20560;DHT22;10438;51.454;6.718;2022-08-02T02:57:07;15.40;99.90
20560;DHT22;10438;51.454;6.718;2022-08-02T02:59:33;15.40;99.90
20560;DHT22;10438;51.454;6.718;2022-08-02T03:02:00;15.40;99.90
20560;DHT22;10438;51.454;6.718;2022-08-02T03:04:27;15.50;99.90
20560;DHT22;10438;51.454;6.718;2022-08-02T03:06:53;15.50;99.90
20560;DHT22;10438;51.454;6.718;2022-08-02T03:09:19;15.50;99.90
20560;DHT22;10438;51.454;6.718;2022-08-02T03:11:45;15.50;99.90
20560;DHT22;10438;51.454;6.718;2022-08-02T03:14:11;15.50;99.90
20560;DHT22;10438;51.454;6.718;2022-08-02T03:16:45;15.50;99.90
20560;DHT22;10438;51.454;6.718;2022-08-02T03:19:11;15.60;99.90
20560;DHT22;10438;51.454;6.718;2022-08-02T03:21:37;15.60;99.90
20560;DHT22;10438;51.454;6.718;2022-08-02T03:24:03;15.60;99.90
20560;DHT22;10438;51.454;6.718;2022-08-02T03:26:28;15.60;99.90
20560;DHT22;10438;51.454;6.718;2022-08-02T03:28:54;15.60;99.90
20560;DHT22;10438;51.454;6.718;2022-08-02T03:31:19;15.50;99.90
20560;DHT22;10438;51.454;6.718;2022-08-02T03:33:45;15.60;99.90
20560;DHT22;10438;51.454;6.718;2022-08-02T03:36:14;15.50;99.90
20560;DHT22;10438;51.454;6.718;2022-08-02T03:38:41;15.50;99.90
20560;DHT22;10438;51.454;6.718;2022-08-02T03:41:10;15.50;99.90
20560;DHT22;10438;51.454;6.718;2022-08-02T03:43:37;15.60;99.90
20560;DHT22;10438;51.454;6.718;2022-08-02T03:46:03;15.60;99.90
20560;DHT22;10438;51.454;6.718;2022-08-02T03:48:32;15.60;99.90
20560;DHT22;10438;51.454;6.718;2022-08-02T03:50:58;15.70;99.90
20560;DHT22;10438;51.454;6.718;2022-08-02T03:53:24;15.70;99.90
20560;DHT22;10438;51.454;6.718;2022-08-02T03:55:50;15.70;99.90
20560;DHT22;10438;51.454;6.718;2022-08-02T03:58:20;15.70;99.90
20560;DHT22;10438;51.454;6.718;2022-08-02T04:00:46;15.70;99.90
20560;DHT22;10438;51.454;6.718;2022-08-02T04:03:12;15.80;99.90
20560;DHT22;10438;51.454;6.718;2022-08-02T04:05:38;15.80;99.90
20560;DHT22;10438;51.454;6.718;2022-08-02T04:08:04;15.80;99.90
20560;DHT22;10438;51.454;6.718;2022-08-02T04:10:30;15.80;99.90
20560;DHT22;10438;51.454;6.718;2022-08-02T04:12:55;15.90;99.90
20560;DHT22;10438;51.454;6.718;2022-08-02T04:15:22;15.90;99.90
20560;DHT22;10438;51.454;6.718;2022-08-02T04:17:55;15.90;99.90
20560;DHT22;10438;51.454;6.718;2022-08-02T04:20:27;15.90;99.90
20560;DHT22;10438;51.454;6.718;2022-08-02T04:22:56;16.00;99.90
20560;DHT22;10438;51.454;6.718;2022-08-02T04:25:22;16.00;99.90
20560;DHT22;10438;51.454;6.718;2022-08-02T04:27:49;16.00;99.90
20560;DHT22;10438;51.454;6.718;2022-08-02T04:30:15;16.00;99.90
20560;DHT22;10438;51.454;6.718;2022-08-02T04:32:42;15.90;99.90
20560;DHT22;10438;51.454;6.718;2022-08-02T04:35:08;16.00;99.90
20560;DHT22;10438;51.454;6.718;2022-08-02T04:37:34;15.90;99.90
20560;DHT22;10438;51.454;6.718;2022-08-02T04:40:02;16.00;99.90
20560;DHT22;10438;51.454;6.718;2022-08-02T04:42:27;16.00;99.90
20560;DHT22;10438;51.454;6.718;2022-08-02T04:44:53;16.10;99.90
20560;DHT22;10438;51.454;6.718;2022-08-02T04:47:20;16.10;99.90
20560;DHT22;10438;51.454;6.718;2022-08-02T04:49:46;16.10;99.90
20560;DHT22;10438;51.454;6.718;2022-08-02T04:52:12;16.20;99.90
20560;DHT22;10438;51.454;6.718;2022-08-02T04:54:37;16.20;99.90
20560;DHT22;10438;51.454;6.718;2022-08-02T04:57:04;16.30;99.90
20560;DHT22;10438;51.454;6.718;2022-08-02T04:59:49;16.30;99.90
20560;DHT22;10438;51.454;6.718;2022-08-02T05:02:15;16.30;99.90
20560;DHT22;10438;51.454;6.718;2022-08-02T05:04:40;16.40;99.90
20560;DHT22;10438;51.454;6.718;2022-08-02T05:07:06;16.40;99.90
20560;DHT22;10438;51.454;6.718;2022-08-02T05:09:31;16.50;99.90
20560;DHT22;10438;51.454;6.718;2022-08-02T05:11:57;16.50;99.90
20560;DHT22;10438;51.454;6.718;2022-08-02T05:14:22;16.60;99.90
20560;DHT22;10438;51.454;6.718;2022-08-02T05:16:48;16.60;99.90
20560;DHT22;10438;51.454;6.718;2022-08-02T05:19:13;16.60;99.90
20560;DHT22;10438;51.454;6.718;2022-08-02T05:21:39;16.70;99.90
20560;DHT22;10438;51.454;6.718;2022-08-02T05:24:05;16.70;99.90
20560;DHT22;10438;51.454;6.718;2022-08-02T05:26:30;16.80;99.90
20560;DHT22;10438;51.454;6.718;2022-08-02T05:28:56;16.80;99.90
20560;DHT22;10438;51.454;6.718;2022-08-02T05:31:21;16.90;99.90
20560;DHT22;10438;51.454;6.718;2022-08-02T05:33:47;16.90;99.90
20560;DHT22;10438;51.454;6.718;2022-08-02T05:36:12;17.00;99.90
20560;DHT22;10438;51.454;6.718;2022-08-02T05:38:38;17.00;99.90
20560;DHT22;10438;51.454;6.718;2022-08-02T05:41:05;17.10;99.90
20560;DHT22;10438;51.454;6.718;2022-08-02T05:43:31;17.10;99.90
20560;DHT22;10438;51.454;6.718;2022-08-02T05:45:57;17.20;99.90
20560;DHT22;10438;51.454;6.718;2022-08-02T05:48:22;17.20;99.90
20560;DHT22;10438;51.454;6.718;2022-08-02T05:50:50;17.30;99.90
20560;DHT22;10438;51.454;6.718;2022-08-02T05:53:26;17.30;99.90
20560;DHT22;10438;51.454;6.718;2022-08-02T05:56:05;17.30;99.90
20560;DHT22;10438;51.454;6.718;2022-08-02T05:58:43;17.40;99.90
20560;DHT22;10438;51.454;6.718;2022-08-02T06:01:13;17.40;99.90
20560;DHT22;10438;51.454;6.718;2022-08-02T06:03:51;17.50;99.90
20560;DHT22;10438;51.454;6.718;2022-08-02T06:06:20;17.50;99.90
20560;DHT22;10438;51.454;6.718;2022-08-02T06:08:50;17.60;99.90
20560;DHT22;10438;51.454;6.718;2022-08-02T06:11:21;17.60;99.90
20560;DHT22;10438;51.454;6.718;2022-08-02T06:13:47;17.70;99.90
20560;DHT22;10438;51.454;6.718;2022-08-02T06:16:13;17.80;99.90
20560;DHT22;10438;51.454;6.718;2022-08-02T06:18:42;17.80;99.90
20560;DHT22;10438;51.454;6.718;2022-08-02T06:21:08;17.90;99.90
20560;DHT22;10438;51.454;6.718;2022-08-02T06:23:39;18.00;99.90
20560;DHT22;10438;51.454;6.718;2022-08-02T06:26:07;18.10;99.90
20560;DHT22;10438;51.454;6.718;2022-08-02T06:28:36;18.20;99.90
20560;DHT22;10438;51.454;6.718;2022-08-02T06:31:03;18.20;99.90
20560;DHT22;10438;51.454;6.718;2022-08-02T06:33:30;18.30;99.90
20560;DHT22;10438;51.454;6.718;2022-08-02T06:36:09;18.30;99.90
20560;DHT22;10438;51.454;6.718;2022-08-02T06:38:43;18.50;99.90
20560;DHT22;10438;51.454;6.718;2022-08-02T06:41:13;18.60;99.90
20560;DHT22;10438;51.454;6.718;2022-08-02T06:44:09;18.70;99.90
20560;DHT22;10438;51.454;6.718;2022-08-02T06:46:34;18.70;99.90
20560;DHT22;10438;51.454;6.718;2022-08-02T06:49:01;18.80;99.90
20560;DHT22;10438;51.454;6.718;2022-08-02T06:51:27;18.80;99.90
20560;DHT22;10438;51.454;6.718;2022-08-02T06:53:53;18.90;99.90
20560;DHT22;10438;51.454;6.718;2022-08-02T06:56:19;18.90;99.90
20560;DHT22;10438;51.454;6.718;2022-08-02T06:58:45;19.10;99.90
20560;DHT22;10438;51.454;6.718;2022-08-02T07:01:11;19.20;99.90
20560;DHT22;10438;51.454;6.718;2022-08-02T07:03:38;19.30;99.90
20560;DHT22;10438;51.454;6.718;2022-08-02T07:06:05;19.40;99.90
20560;DHT22;10438;51.454;6.718;2022-08-02T07:08:33;19.50;99.90
20560;DHT22;10438;51.454;6.718;2022-08-02T07:11:05;19.60;99.90
20560;DHT22;10438;51.454;6.718;2022-08-02T07:13:31;19.60;99.90
20560;DHT22;10438;51.454;6.718;2022-08-02T07:15:56;19.70;99.90
20560;DHT22;10438;51.454;6.718;2022-08-02T07:18:23;19.90;99.90
20560;DHT22;10438;51.454;6.718;2022-08-02T07:20:49;20.00;99.90
20560;DHT22;10438;51.454;6.718;2022-08-02T07:23:15;20.00;99.90
20560;DHT22;10438;51.454;6.718;2022-08-02T07:25:41;20.10;99.90
20560;DHT22;10438;51.454;6.718;2022-08-02T07:28:09;20.20;99.90
20560;DHT22;10438;51.454;6.718;2022-08-02T07:30:34;20.30;99.90
20560;DHT22;10438;51.454;6.718;2022-08-02T07:33:01;20.40;99.90
20560;DHT22;10438;51.454;6.718;2022-08-02T07:35:26;20.50;99.90
20560;DHT22;10438;51.454;6.718;2022-08-02T07:37:52;20.60;99.90
20560;DHT22;10438;51.454;6.718;2022-08-02T07:40:19;20.70;99.90
20560;DHT22;10438;51.454;6.718;2022-08-02T07:42:45;20.80;99.90
20560;DHT22;10438;51.454;6.718;2022-08-02T07:45:12;20.90;99.90
20560;DHT22;10438;51.454;6.718;2022-08-02T07:47:39;21.00;99.90
20560;DHT22;10438;51.454;6.718;2022-08-02T07:50:06;21.20;99.90
20560;DHT22;10438;51.454;6.718;2022-08-02T07:52:32;21.30;99.90
20560;DHT22;10438;51.454;6.718;2022-08-02T07:54:57;21.40;99.90
20560;DHT22;10438;51.454;6.718;2022-08-02T07:57:23;21.50;99.90
20560;DHT22;10438;51.454;6.718;2022-08-02T07:59:49;21.60;99.90
20560;DHT22;10438;51.454;6.718;2022-08-02T08:02:16;21.70;99.90
20560;DHT22;10438;51.454;6.718;2022-08-02T08:04:41;21.80;99.90
20560;DHT22;10438;51.454;6.718;2022-08-02T08:07:07;21.90;99.90
20560;DHT22;10438;51.454;6.718;2022-08-02T08:09:35;22.00;99.90
20560;DHT22;10438;51.454;6.718;2022-08-02T08:12:07;22.10;99.90
20560;DHT22;10438;51.454;6.718;2022-08-02T08:14:33;22.30;99.90
20560;DHT22;10438;51.454;6.718;2022-08-02T08:16:59;22.50;99.90
20560;DHT22;10438;51.454;6.718;2022-08-02T08:19:25;22.50;99.90
20560;DHT22;10438;51.454;6.718;2022-08-02T08:21:50;22.70;99.90
20560;DHT22;10438;51.454;6.718;2022-08-02T08:24:16;22.80;99.90
20560;DHT22;10438;51.454;6.718;2022-08-02T08:26:42;22.90;99.90
20560;DHT22;10438;51.454;6.718;2022-08-02T08:29:07;23.00;99.90
20560;DHT22;10438;51.454;6.718;2022-08-02T08:31:33;23.10;99.90
20560;DHT22;10438;51.454;6.718;2022-08-02T08:33:59;23.20;99.90
20560;DHT22;10438;51.454;6.718;2022-08-02T08:36:25;23.10;99.90
20560;DHT22;10438;51.454;6.718;2022-08-02T08:38:51;23.00;99.90
20560;DHT22;10438;51.454;6.718;2022-08-02T08:41:17;23.10;99.90
20560;DHT22;10438;51.454;6.718;2022-08-02T08:43:44;23.20;99.90
20560;DHT22;10438;51.454;6.718;2022-08-02T08:46:12;23.30;99.90
20560;DHT22;10438;51.454;6.718;2022-08-02T08:48:45;23.50;99.90
20560;DHT22;10438;51.454;6.718;2022-08-02T08:51:20;23.50;99.90
20560;DHT22;10438;51.454;6.718;2022-08-02T08:53:47;23.70;99.90
20560;DHT22;10438;51.454;6.718;2022-08-02T08:56:14;23.70;99.90
20560;DHT22;10438;51.454;6.718;2022-08-02T08:58:40;23.80;99.90
20560;DHT22;10438;51.454;6.718;2022-08-02T09:01:06;23.80;99.90
20560;DHT22;10438;51.454;6.718;2022-08-02T09:03:32;23.90;99.90
20560;DHT22;10438;51.454;6.718;2022-08-02T09:05:58;24.00;99.90
20560;DHT22;10438;51.454;6.718;2022-08-02T09:08:24;24.20;99.90
20560;DHT22;10438;51.454;6.718;2022-08-02T09:10:50;24.30;99.90
20560;DHT22;10438;51.454;6.718;2022-08-02T09:13:23;24.30;99.90
20560;DHT22;10438;51.454;6.718;2022-08-02T09:16:01;24.50;99.90
20560;DHT22;10438;51.454;6.718;2022-08-02T09:18:36;24.80;99.90
20560;DHT22;10438;51.454;6.718;2022-08-02T09:21:05;25.00;99.90
20560;DHT22;10438;51.454;6.718;2022-08-02T09:23:38;25.10;99.90
20560;DHT22;10438;51.454;6.718;2022-08-02T09:26:07;25.10;99.90
20560;DHT22;10438;51.454;6.718;2022-08-02T09:28:35;25.10;99.90
20560;DHT22;10438;51.454;6.718;2022-08-02T09:31:06;25.10;99.90
20560;DHT22;10438;51.454;6.718;2022-08-02T09:33:34;25.10;99.90
20560;DHT22;10438;51.454;6.718;2022-08-02T09:36:05;25.10;99.90
20560;DHT22;10438;51.454;6.718;2022-08-02T09:38:31;25.10;99.90
20560;DHT22;10438;51.454;6.718;2022-08-02T09:40:58;25.20;99.90
20560;DHT22;10438;51.454;6.718;2022-08-02T09:43:53;25.50;99.90
20560;DHT22;10438;51.454;6.718;2022-08-02T09:46:24;25.60;99.90
20560;DHT22;10438;51.454;6.718;2022-08-02T09:48:52;25.80;99.90
20560;DHT22;10438;51.454;6.718;2022-08-02T09:51:21;25.90;99.90
20560;DHT22;10438;51.454;6.718;2022-08-02T09:53:49;26.10;99.90
20560;DHT22;10438;51.454;6.718;2022-08-02T09:56:16;26.20;99.90
20560;DHT22;10438;51.454;6.718;2022-08-02T09:58:42;26.10;99.90
20560;DHT22;10438;51.454;6.718;2022-08-02T10:01:08;26.20;99.90
20560;DHT22;10438;51.454;6.718;2022-08-02T10:03:34;26.20;99.90
20560;DHT22;10438;51.454;6.718;2022-08-02T10:06:00;26.10;99.70
20560;DHT22;10438;51.454;6.718;2022-08-02T10:08:27;25.80;99.50
20560;DHT22;10438;51.454;6.718;2022-08-02T10:10:53;25.80;99.90
20560;DHT22;10438;51.454;6.718;2022-08-02T10:13:33;25.90;99.90
20560;DHT22;10438;51.454;6.718;2022-08-02T10:15:59;25.90;99.90
20560;DHT22;10438;51.454;6.718;2022-08-02T10:18:27;25.90;99.90
20560;DHT22;10438;51.454;6.718;2022-08-02T10:20:55;26.00;99.90
20560;DHT22;10438;51.454;6.718;2022-08-02T10:23:22;26.30;99.90
20560;DHT22;10438;51.454;6.718;2022-08-02T10:25:50;26.70;99.50
20560;DHT22;10438;51.454;6.718;2022-08-02T10:28:17;26.90;92.10
20560;DHT22;10438;51.454;6.718;2022-08-02T10:30:45;27.00;91.40
20560;DHT22;10438;51.454;6.718;2022-08-02T10:33:16;26.90;86.40
20560;DHT22;10438;51.454;6.718;2022-08-02T10:35:42;27.00;90.30
20560;DHT22;10438;51.454;6.718;2022-08-02T10:38:10;27.10;81.30
20560;DHT22;10438;51.454;6.718;2022-08-02T10:40:50;27.00;84.10
20560;DHT22;10438;51.454;6.718;2022-08-02T10:49:10;26.60;82.70
20560;DHT22;10438;51.454;6.718;2022-08-02T10:54:24;27.30;66.60
20560;DHT22;10438;51.454;6.718;2022-08-02T10:56:52;27.60;68.60
20560;DHT22;10438;51.454;6.718;2022-08-02T10:59:29;27.80;71.30
20560;DHT22;10438;51.454;6.718;2022-08-02T11:01:56;27.70;66.10
20560;DHT22;10438;51.454;6.718;2022-08-02T11:04:30;27.60;67.50
20560;DHT22;10438;51.454;6.718;2022-08-02T11:07:16;27.50;66.00
20560;DHT22;10438;51.454;6.718;2022-08-02T11:09:51;27.60;63.80
20560;DHT22;10438;51.454;6.718;2022-08-02T11:12:20;28.00;64.80
20560;DHT22;10438;51.454;6.718;2022-08-02T11:14:59;28.20;50.80
20560;DHT22;10438;51.454;6.718;2022-08-02T11:17:25;28.20;40.80
20560;DHT22;10438;51.454;6.718;2022-08-02T11:22:41;28.10;34.80
20560;DHT22;10438;51.454;6.718;2022-08-02T11:27:52;28.10;42.90
20560;DHT22;10438;51.454;6.718;2022-08-02T11:30:18;28.00;46.00
20560;DHT22;10438;51.454;6.718;2022-08-02T11:32:44;28.00;34.70
20560;DHT22;10438;51.454;6.718;2022-08-02T11:35:10;27.80;37.60
20560;DHT22;10438;51.454;6.718;2022-08-02T11:37:40;27.50;37.70
20560;DHT22;10438;51.454;6.718;2022-08-02T11:40:11;27.50;39.60
20560;DHT22;10438;51.454;6.718;2022-08-02T11:42:42;27.90;45.00
20560;DHT22;10438;51.454;6.718;2022-08-02T11:45:10;28.30;35.70
20560;DHT22;10438;51.454;6.718;2022-08-02T11:50:12;28.80;36.60
20560;DHT22;10438;51.454;6.718;2022-08-02T11:52:38;28.80;26.80
20560;DHT22;10438;51.454;6.718;2022-08-02T11:55:07;28.80;25.30
20560;DHT22;10438;51.454;6.718;2022-08-02T11:57:34;28.30;20.70
20560;DHT22;10438;51.454;6.718;2022-08-02T11:59:59;28.20;22.90
20560;DHT22;10438;51.454;6.718;2022-08-02T12:02:27;28.20;26.30
20560;DHT22;10438;51.454;6.718;2022-08-02T12:04:54;28.00;27.90
20560;DHT22;10438;51.454;6.718;2022-08-02T12:10:00;27.70;33.00
20560;DHT22;10438;51.454;6.718;2022-08-02T12:12:27;27.50;35.10
20560;DHT22;10438;51.454;6.718;2022-08-02T12:14:52;27.60;38.20
20560;DHT22;10438;51.454;6.718;2022-08-02T12:17:27;27.90;46.50
20560;DHT22;10438;51.454;6.718;2022-08-02T12:20:11;28.10;32.80
20560;DHT22;10438;51.454;6.718;2022-08-02T12:22:38;28.40;29.90
20560;DHT22;10438;51.454;6.718;2022-08-02T12:25:18;28.60;29.60
20560;DHT22;10438;51.454;6.718;2022-08-02T12:27:45;28.70;29.80
20560;DHT22;10438;51.454;6.718;2022-08-02T12:30:15;28.60;27.00
20560;DHT22;10438;51.454;6.718;2022-08-02T12:32:43;28.70;29.40
20560;DHT22;10438;51.454;6.718;2022-08-02T12:35:15;29.00;27.50
20560;DHT22;10438;51.454;6.718;2022-08-02T12:37:44;29.20;24.60
20560;DHT22;10438;51.454;6.718;2022-08-02T12:40:36;29.20;20.70
20560;DHT22;10438;51.454;6.718;2022-08-02T12:43:14;29.10;22.60
20560;DHT22;10438;51.454;6.718;2022-08-02T12:45:52;29.30;24.60
20560;DHT22;10438;51.454;6.718;2022-08-02T12:48:35;29.30;21.20
20560;DHT22;10438;51.454;6.718;2022-08-02T12:51:37;29.20;23.10
20560;DHT22;10438;51.454;6.718;2022-08-02T12:54:19;29.40;23.60
20560;DHT22;10438;51.454;6.718;2022-08-02T12:56:46;29.50;22.30
20560;DHT22;10438;51.454;6.718;2022-08-02T12:59:11;29.50;23.20
20560;DHT22;10438;51.454;6.718;2022-08-02T13:01:37;29.50;21.20
20560;DHT22;10438;51.454;6.718;2022-08-02T13:04:04;29.20;20.40
20560;DHT22;10438;51.454;6.718;2022-08-02T13:06:30;29.20;21.10
20560;DHT22;10438;51.454;6.718;2022-08-02T13:08:56;29.40;21.20
20560;DHT22;10438;51.454;6.718;2022-08-02T13:11:23;29.50;19.10
20560;DHT22;10438;51.454;6.718;2022-08-02T13:13:49;29.30;15.80
20560;DHT22;10438;51.454;6.718;2022-08-02T13:16:15;29.40;15.40
20560;DHT22;10438;51.454;6.718;2022-08-02T13:18:41;29.50;15.80
20560;DHT22;10438;51.454;6.718;2022-08-02T13:21:07;29.80;18.20
20560;DHT22;10438;51.454;6.718;2022-08-02T13:23:34;29.90;15.10
20560;DHT22;10438;51.454;6.718;2022-08-02T13:26:00;30.10;14.20
20560;DHT22;10438;51.454;6.718;2022-08-02T13:28:29;30.40;13.50
20560;DHT22;10438;51.454;6.718;2022-08-02T13:30:55;30.60;13.10
20560;DHT22;10438;51.454;6.718;2022-08-02T13:33:21;30.70;12.00
20560;DHT22;10438;51.454;6.718;2022-08-02T13:35:47;31.20;12.30
20560;DHT22;10438;51.454;6.718;2022-08-02T13:38:13;31.50;11.90
20560;DHT22;10438;51.454;6.718;2022-08-02T13:40:38;31.50;9.90
20560;DHT22;10438;51.454;6.718;2022-08-02T13:43:25;31.40;9.70
20560;DHT22;10438;51.454;6.718;2022-08-02T13:45:50;31.60;9.60
20560;DHT22;10438;51.454;6.718;2022-08-02T13:48:16;31.50;7.10
20560;DHT22;10438;51.454;6.718;2022-08-02T13:50:42;31.00;9.00
20560;DHT22;10438;51.454;6.718;2022-08-02T13:53:07;30.80;8.60
20560;DHT22;10438;51.454;6.718;2022-08-02T13:55:34;31.00;8.80
20560;DHT22;10438;51.454;6.718;2022-08-02T13:57:59;31.00;8.10
20560;DHT22;10438;51.454;6.718;2022-08-02T14:00:25;30.90;10.60
20560;DHT22;10438;51.454;6.718;2022-08-02T14:02:52;30.90;7.60
20560;DHT22;10438;51.454;6.718;2022-08-02T14:05:19;31.20;8.10
20560;DHT22;10438;51.454;6.718;2022-08-02T14:07:44;31.30;7.90
20560;DHT22;10438;51.454;6.718;2022-08-02T14:10:10;31.70;5.10
20560;DHT22;10438;51.454;6.718;2022-08-02T14:12:35;31.80;4.50
20560;DHT22;10438;51.454;6.718;2022-08-02T14:15:01;32.20;3.90
20560;DHT22;10438;51.454;6.718;2022-08-02T14:17:26;32.50;3.20
20560;DHT22;10438;51.454;6.718;2022-08-02T14:19:52;32.50;2.40
20560;DHT22;10438;51.454;6.718;2022-08-02T14:22:17;32.90;3.70
20560;DHT22;10438;51.454;6.718;2022-08-02T14:24:43;33.10;3.70
20560;DHT22;10438;51.454;6.718;2022-08-02T14:27:09;32.80;2.00
20560;DHT22;10438;51.454;6.718;2022-08-02T14:29:35;32.70;2.40
20560;DHT22;10438;51.454;6.718;2022-08-02T14:32:01;32.50;1.00
20560;DHT22;10438;51.454;6.718;2022-08-02T14:34:27;32.60;1.00
20560;DHT22;10438;51.454;6.718;2022-08-02T14:36:54;32.60;1.00
20560;DHT22;10438;51.454;6.718;2022-08-02T14:39:20;32.40;1.00
20560;DHT22;10438;51.454;6.718;2022-08-02T14:41:45;32.20;1.00
20560;DHT22;10438;51.454;6.718;2022-08-02T14:44:11;31.90;1.00
20560;DHT22;10438;51.454;6.718;2022-08-02T14:46:38;31.80;2.10
20560;DHT22;10438;51.454;6.718;2022-08-02T14:49:08;31.80;3.10
20560;DHT22;10438;51.454;6.718;2022-08-02T14:51:36;32.00;3.60
20560;DHT22;10438;51.454;6.718;2022-08-02T14:54:04;31.90;1.00
20560;DHT22;10438;51.454;6.718;2022-08-02T14:56:30;31.90;1.90
20560;DHT22;10438;51.454;6.718;2022-08-02T14:58:56;32.10;1.90
20560;DHT22;10438;51.454;6.718;2022-08-02T15:01:22;32.40;2.60
20560;DHT22;10438;51.454;6.718;2022-08-02T15:03:47;33.00;1.00
20560;DHT22;10438;51.454;6.718;2022-08-02T15:06:13;33.10;1.00
20560;DHT22;10438;51.454;6.718;2022-08-02T15:08:39;32.80;1.00
20560;DHT22;10438;51.454;6.718;2022-08-02T15:11:05;32.60;1.00
20560;DHT22;10438;51.454;6.718;2022-08-02T15:13:31;32.80;1.00
20560;DHT22;10438;51.454;6.718;2022-08-02T15:15:56;32.50;1.00
20560;DHT22;10438;51.454;6.718;2022-08-02T15:18:22;32.50;1.00
20560;DHT22;10438;51.454;6.718;2022-08-02T15:20:48;32.40;1.00
20560;DHT22;10438;51.454;6.718;2022-08-02T15:23:14;32.70;1.00
20560;DHT22;10438;51.454;6.718;2022-08-02T15:25:40;33.30;1.00
20560;DHT22;10438;51.454;6.718;2022-08-02T15:28:06;33.70;1.00
20560;DHT22;10438;51.454;6.718;2022-08-02T15:30:33;33.80;1.00
20560;DHT22;10438;51.454;6.718;2022-08-02T15:32:58;33.00;1.00
20560;DHT22;10438;51.454;6.718;2022-08-02T15:35:24;32.40;1.00
20560;DHT22;10438;51.454;6.718;2022-08-02T15:37:49;32.40;1.00
20560;DHT22;10438;51.454;6.718;2022-08-02T15:40:15;32.30;1.00
20560;DHT22;10438;51.454;6.718;2022-08-02T15:42:43;32.20;1.00
20560;DHT22;10438;51.454;6.718;2022-08-02T15:45:10;31.90;1.00
20560;DHT22;10438;51.454;6.718;2022-08-02T15:47:35;31.80;1.00
20560;DHT22;10438;51.454;6.718;2022-08-02T15:50:01;31.90;1.00
20560;DHT22;10438;51.454;6.718;2022-08-02T15:52:27;31.80;1.00
20560;DHT22;10438;51.454;6.718;2022-08-02T15:54:53;31.60;1.00
20560;DHT22;10438;51.454;6.718;2022-08-02T15:57:19;31.80;1.00
20560;DHT22;10438;51.454;6.718;2022-08-02T15:59:44;32.20;1.00
20560;DHT22;10438;51.454;6.718;2022-08-02T16:02:11;32.10;1.00